sensor_id;sensor_type;location;lat;lon;timestamp;P1;durP1;ratioP1;P2;durP2;ratioP2
27746;SDS011;15138;51.012;4.692;2023-02-20T00:01:19;22.10;;;11.27;;
27746;SDS011;15138;51.012;4.692;2023-02-20T00:03:49;28.60;;;13.68;;
27746;SDS011;15138;51.012;4.692;2023-02-20T00:06:18;26.40;;;13.95;;
27746;SDS011;15138;51.012;4.692;2023-02-20T00:08:47;26.77;;;13.45;;
27746;SDS011;15138;51.012;4.692;2023-02-20T00:11:15;25.52;;;13.32;;
27746;SDS011;15138;51.012;4.692;2023-02-20T00:13:44;32.70;;;13.95;;
27746;SDS011;15138;51.012;4.692;2023-02-20T00:16:13;16.48;;;9.48;;
27746;SDS011;15138;51.012;4.692;2023-02-20T00:18:42;25.08;;;12.50;;
27746;SDS011;15138;51.012;4.692;2023-02-20T00:21:13;22.45;;;11.30;;
27746;SDS011;15138;51.012;4.692;2023-02-20T00:23:42;23.88;;;12.40;;
27746;SDS011;15138;51.012;4.692;2023-02-20T00:26:12;24.90;;;12.20;;
27746;SDS011;15138;51.012;4.692;2023-02-20T00:28:42;27.25;;;12.95;;
27746;SDS011;15138;51.012;4.692;2023-02-20T00:31:13;23.55;;;12.20;;
27746;SDS011;15138;51.012;4.692;2023-02-20T00:33:44;25.27;;;13.05;;
27746;SDS011;15138;51.012;4.692;2023-02-20T00:36:17;24.80;;;12.10;;
27746;SDS011;15138;51.012;4.692;2023-02-20T00:38:46;26.13;;;11.70;;
27746;SDS011;15138;51.012;4.692;2023-02-20T00:41:15;19.52;;;10.02;;
27746;SDS011;15138;51.012;4.692;2023-02-20T00:43:44;21.65;;;10.45;;
27746;SDS011;15138;51.012;4.692;2023-02-20T00:46:13;16.52;;;8.88;;
27746;SDS011;15138;51.012;4.692;2023-02-20T00:48:42;25.75;;;10.93;;
27746;SDS011;15138;51.012;4.692;2023-02-20T00:51:11;23.92;;;11.05;;
27746;SDS011;15138;51.012;4.692;2023-02-20T00:53:41;26.40;;;10.73;;
27746;SDS011;15138;51.012;4.692;2023-02-20T00:56:09;20.35;;;9.38;;
27746;SDS011;15138;51.012;4.692;2023-02-20T00:58:38;25.80;;;9.80;;
27746;SDS011;15138;51.012;4.692;2023-02-20T01:01:07;26.35;;;10.80;;
27746;SDS011;15138;51.012;4.692;2023-02-20T01:03:36;20.55;;;9.00;;
27746;SDS011;15138;51.012;4.692;2023-02-20T01:06:05;22.00;;;9.20;;
27746;SDS011;15138;51.012;4.692;2023-02-20T01:08:33;21.38;;;9.63;;
27746;SDS011;15138;51.012;4.692;2023-02-20T01:11:03;22.75;;;9.52;;
27746;SDS011;15138;51.012;4.692;2023-02-20T01:13:32;20.77;;;8.48;;
27746;SDS011;15138;51.012;4.692;2023-02-20T01:16:01;27.02;;;9.02;;
27746;SDS011;15138;51.012;4.692;2023-02-20T01:18:31;26.10;;;8.27;;
27746;SDS011;15138;51.012;4.692;2023-02-20T01:21:00;33.25;;;9.43;;
27746;SDS011;15138;51.012;4.692;2023-02-20T01:23:28;22.95;;;8.38;;
27746;SDS011;15138;51.012;4.692;2023-02-20T01:25:57;25.90;;;8.05;;
27746;SDS011;15138;51.012;4.692;2023-02-20T01:28:27;20.10;;;8.32;;
27746;SDS011;15138;51.012;4.692;2023-02-20T01:30:56;24.23;;;8.00;;
27746;SDS011;15138;51.012;4.692;2023-02-20T01:33:24;21.17;;;7.72;;
27746;SDS011;15138;51.012;4.692;2023-02-20T01:35:53;23.63;;;8.32;;
27746;SDS011;15138;51.012;4.692;2023-02-20T01:38:22;28.20;;;8.85;;
27746;SDS011;15138;51.012;4.692;2023-02-20T01:40:50;27.77;;;8.57;;
27746;SDS011;15138;51.012;4.692;2023-02-20T01:43:19;24.15;;;8.20;;
27746;SDS011;15138;51.012;4.692;2023-02-20T01:45:49;25.98;;;8.68;;
27746;SDS011;15138;51.012;4.692;2023-02-20T01:48:18;31.13;;;9.52;;
27746;SDS011;15138;51.012;4.692;2023-02-20T01:50:49;30.38;;;9.32;;
27746;SDS011;15138;51.012;4.692;2023-02-20T01:53:23;27.95;;;10.05;;
27746;SDS011;15138;51.012;4.692;2023-02-20T01:55:56;15.20;;;6.05;;
27746;SDS011;15138;51.012;4.692;2023-02-20T01:58:29;31.52;;;13.02;;
27746;SDS011;15138;51.012;4.692;2023-02-20T02:01:04;24.77;;;10.77;;
27746;SDS011;15138;51.012;4.692;2023-02-20T02:03:33;30.98;;;12.48;;
27746;SDS011;15138;51.012;4.692;2023-02-20T02:06:05;49.55;;;16.02;;
27746;SDS011;15138;51.012;4.692;2023-02-20T02:08:37;38.92;;;16.63;;
27746;SDS011;15138;51.012;4.692;2023-02-20T02:11:08;39.63;;;17.58;;
27746;SDS011;15138;51.012;4.692;2023-02-20T02:13:39;34.97;;;14.68;;
27746;SDS011;15138;51.012;4.692;2023-02-20T02:16:14;38.42;;;16.42;;
27746;SDS011;15138;51.012;4.692;2023-02-20T02:18:51;34.58;;;14.95;;
27746;SDS011;15138;51.012;4.692;2023-02-20T02:24:52;43.05;;;20.35;;
27746;SDS011;15138;51.012;4.692;2023-02-20T02:27:53;45.67;;;20.48;;
27746;SDS011;15138;51.012;4.692;2023-02-20T02:30:59;32.00;;;14.00;;
27746;SDS011;15138;51.012;4.692;2023-02-20T02:37:00;49.47;;;21.50;;
27746;SDS011;15138;51.012;4.692;2023-02-20T02:39:35;45.38;;;20.50;;
27746;SDS011;15138;51.012;4.692;2023-02-20T02:42:12;49.40;;;22.75;;
27746;SDS011;15138;51.012;4.692;2023-02-20T02:44:48;40.72;;;18.08;;
27746;SDS011;15138;51.012;4.692;2023-02-20T02:47:24;45.10;;;19.58;;
27746;SDS011;15138;51.012;4.692;2023-02-20T02:50:01;56.53;;;23.30;;
27746;SDS011;15138;51.012;4.692;2023-02-20T02:52:36;28.13;;;10.10;;
27746;SDS011;15138;51.012;4.692;2023-02-20T02:55:12;50.75;;;24.80;;
27746;SDS011;15138;51.012;4.692;2023-02-20T02:57:43;51.63;;;22.55;;
27746;SDS011;15138;51.012;4.692;2023-02-20T03:00:13;54.88;;;24.58;;
27746;SDS011;15138;51.012;4.692;2023-02-20T03:02:47;53.33;;;24.23;;
27746;SDS011;15138;51.012;4.692;2023-02-20T03:05:30;57.28;;;24.02;;
27746;SDS011;15138;51.012;4.692;2023-02-20T03:08:15;50.30;;;20.80;;
27746;SDS011;15138;51.012;4.692;2023-02-20T03:10:58;58.88;;;23.70;;
27746;SDS011;15138;51.012;4.692;2023-02-20T03:13:31;49.22;;;22.92;;
27746;SDS011;15138;51.012;4.692;2023-02-20T03:16:21;54.03;;;21.35;;
27746;SDS011;15138;51.012;4.692;2023-02-20T03:18:54;45.88;;;18.95;;
27746;SDS011;15138;51.012;4.692;2023-02-20T03:21:29;34.45;;;19.23;;
27746;SDS011;15138;51.012;4.692;2023-02-20T03:24:02;44.28;;;18.80;;
27746;SDS011;15138;51.012;4.692;2023-02-20T03:26:33;50.83;;;18.27;;
27746;SDS011;15138;51.012;4.692;2023-02-20T03:29:05;39.90;;;17.85;;
27746;SDS011;15138;51.012;4.692;2023-02-20T03:31:36;41.53;;;14.38;;
27746;SDS011;15138;51.012;4.692;2023-02-20T03:34:09;34.60;;;16.05;;
27746;SDS011;15138;51.012;4.692;2023-02-20T03:36:59;42.45;;;16.75;;
27746;SDS011;15138;51.012;4.692;2023-02-20T03:39:51;38.05;;;15.95;;
27746;SDS011;15138;51.012;4.692;2023-02-20T03:42:42;33.35;;;15.00;;
27746;SDS011;15138;51.012;4.692;2023-02-20T03:45:31;38.83;;;16.08;;
27746;SDS011;15138;51.012;4.692;2023-02-20T03:48:04;33.78;;;16.08;;
27746;SDS011;15138;51.012;4.692;2023-02-20T03:50:36;38.58;;;15.55;;
27746;SDS011;15138;51.012;4.692;2023-02-20T03:53:05;39.45;;;15.13;;
27746;SDS011;15138;51.012;4.692;2023-02-20T03:55:35;28.83;;;13.60;;
27746;SDS011;15138;51.012;4.692;2023-02-20T03:58:04;32.00;;;14.45;;
27746;SDS011;15138;51.012;4.692;2023-02-20T04:00:37;32.90;;;14.93;;
27746;SDS011;15138;51.012;4.692;2023-02-20T04:03:09;31.83;;;14.50;;
27746;SDS011;15138;51.012;4.692;2023-02-20T04:05:41;34.10;;;14.82;;
27746;SDS011;15138;51.012;4.692;2023-02-20T04:08:14;30.10;;;12.85;;
27746;SDS011;15138;51.012;4.692;2023-02-20T04:10:49;33.75;;;14.82;;
27746;SDS011;15138;51.012;4.692;2023-02-20T04:13:23;29.33;;;13.70;;
27746;SDS011;15138;51.012;4.692;2023-02-20T04:15:52;36.22;;;14.98;;
27746;SDS011;15138;51.012;4.692;2023-02-20T04:18:23;27.65;;;12.50;;
27746;SDS011;15138;51.012;4.692;2023-02-20T04:20:54;34.45;;;13.07;;
27746;SDS011;15138;51.012;4.692;2023-02-20T04:23:26;34.95;;;14.05;;
27746;SDS011;15138;51.012;4.692;2023-02-20T04:25:57;37.22;;;13.95;;
27746;SDS011;15138;51.012;4.692;2023-02-20T04:28:29;30.70;;;12.60;;
27746;SDS011;15138;51.012;4.692;2023-02-20T04:30:58;28.50;;;12.40;;
27746;SDS011;15138;51.012;4.692;2023-02-20T04:33:26;39.28;;;11.55;;
27746;SDS011;15138;51.012;4.692;2023-02-20T04:35:55;19.85;;;7.65;;
27746;SDS011;15138;51.012;4.692;2023-02-20T04:38:24;35.05;;;13.13;;
27746;SDS011;15138;51.012;4.692;2023-02-20T04:40:53;24.70;;;10.65;;
27746;SDS011;15138;51.012;4.692;2023-02-20T04:43:23;28.42;;;10.85;;
27746;SDS011;15138;51.012;4.692;2023-02-20T04:45:52;28.52;;;10.98;;
27746;SDS011;15138;51.012;4.692;2023-02-20T04:48:21;39.58;;;13.55;;
27746;SDS011;15138;51.012;4.692;2023-02-20T04:50:49;32.88;;;13.30;;
27746;SDS011;15138;51.012;4.692;2023-02-20T04:53:19;30.73;;;11.43;;
27746;SDS011;15138;51.012;4.692;2023-02-20T04:55:47;27.40;;;10.35;;
27746;SDS011;15138;51.012;4.692;2023-02-20T04:58:16;40.00;;;11.93;;
27746;SDS011;15138;51.012;4.692;2023-02-20T05:00:46;32.40;;;12.20;;
27746;SDS011;15138;51.012;4.692;2023-02-20T05:03:15;28.02;;;9.43;;
27746;SDS011;15138;51.012;4.692;2023-02-20T05:05:44;27.60;;;9.95;;
27746;SDS011;15138;51.012;4.692;2023-02-20T05:08:12;27.50;;;11.25;;
27746;SDS011;15138;51.012;4.692;2023-02-20T05:10:41;32.20;;;12.07;;
27746;SDS011;15138;51.012;4.692;2023-02-20T05:13:09;28.15;;;10.52;;
27746;SDS011;15138;51.012;4.692;2023-02-20T05:15:38;28.83;;;11.45;;
27746;SDS011;15138;51.012;4.692;2023-02-20T05:18:08;29.13;;;10.75;;
27746;SDS011;15138;51.012;4.692;2023-02-20T05:20:37;25.08;;;9.02;;
27746;SDS011;15138;51.012;4.692;2023-02-20T05:25:51;26.38;;;10.05;;
27746;SDS011;15138;51.012;4.692;2023-02-20T05:28:20;27.77;;;9.65;;
27746;SDS011;15138;51.012;4.692;2023-02-20T05:30:48;30.42;;;10.18;;
27746;SDS011;15138;51.012;4.692;2023-02-20T05:33:18;18.85;;;7.18;;
27746;SDS011;15138;51.012;4.692;2023-02-20T05:35:47;34.55;;;12.30;;
27746;SDS011;15138;51.012;4.692;2023-02-20T05:38:16;27.67;;;10.90;;
27746;SDS011;15138;51.012;4.692;2023-02-20T05:40:45;33.70;;;11.35;;
27746;SDS011;15138;51.012;4.692;2023-02-20T05:43:15;30.15;;;11.82;;
27746;SDS011;15138;51.012;4.692;2023-02-20T05:45:43;33.65;;;10.80;;
27746;SDS011;15138;51.012;4.692;2023-02-20T05:48:12;23.23;;;8.95;;
27746;SDS011;15138;51.012;4.692;2023-02-20T05:50:43;27.42;;;10.23;;
27746;SDS011;15138;51.012;4.692;2023-02-20T05:53:12;35.90;;;11.57;;
27746;SDS011;15138;51.012;4.692;2023-02-20T05:55:40;25.55;;;7.97;;
27746;SDS011;15138;51.012;4.692;2023-02-20T05:58:09;22.88;;;8.50;;
27746;SDS011;15138;51.012;4.692;2023-02-20T06:00:41;31.08;;;9.93;;
27746;SDS011;15138;51.012;4.692;2023-02-20T06:03:13;35.50;;;10.77;;
27746;SDS011;15138;51.012;4.692;2023-02-20T06:05:46;24.75;;;8.63;;
27746;SDS011;15138;51.012;4.692;2023-02-20T06:08:20;34.63;;;12.13;;
27746;SDS011;15138;51.012;4.692;2023-02-20T06:10:54;28.15;;;8.80;;
27746;SDS011;15138;51.012;4.692;2023-02-20T06:13:26;30.27;;;13.40;;
27746;SDS011;15138;51.012;4.692;2023-02-20T06:15:55;13.10;;;6.82;;
27746;SDS011;15138;51.012;4.692;2023-02-20T06:18:25;28.38;;;11.15;;
27746;SDS011;15138;51.012;4.692;2023-02-20T06:20:56;25.70;;;8.75;;
27746;SDS011;15138;51.012;4.692;2023-02-20T06:23:27;24.15;;;12.55;;
27746;SDS011;15138;51.012;4.692;2023-02-20T06:25:58;38.60;;;11.75;;
27746;SDS011;15138;51.012;4.692;2023-02-20T06:28:31;28.50;;;10.32;;
27746;SDS011;15138;51.012;4.692;2023-02-20T06:31:03;28.55;;;12.05;;
27746;SDS011;15138;51.012;4.692;2023-02-20T06:33:34;31.30;;;11.50;;
27746;SDS011;15138;51.012;4.692;2023-02-20T06:36:16;27.17;;;9.75;;
27746;SDS011;15138;51.012;4.692;2023-02-20T06:38:49;31.88;;;12.95;;
27746;SDS011;15138;51.012;4.692;2023-02-20T06:41:23;35.25;;;11.90;;
27746;SDS011;15138;51.012;4.692;2023-02-20T06:43:53;29.60;;;12.82;;
27746;SDS011;15138;51.012;4.692;2023-02-20T06:46:27;35.35;;;13.85;;
27746;SDS011;15138;51.012;4.692;2023-02-20T06:49:01;20.88;;;8.75;;
27746;SDS011;15138;51.012;4.692;2023-02-20T06:51:33;32.38;;;12.93;;
27746;SDS011;15138;51.012;4.692;2023-02-20T06:54:07;36.53;;;13.38;;
27746;SDS011;15138;51.012;4.692;2023-02-20T06:56:42;32.70;;;13.40;;
27746;SDS011;15138;51.012;4.692;2023-02-20T06:59:15;25.17;;;12.73;;
27746;SDS011;15138;51.012;4.692;2023-02-20T07:01:46;32.10;;;12.10;;
27746;SDS011;15138;51.012;4.692;2023-02-20T07:04:17;27.65;;;12.30;;
27746;SDS011;15138;51.012;4.692;2023-02-20T07:06:51;29.10;;;12.55;;
27746;SDS011;15138;51.012;4.692;2023-02-20T07:09:21;37.45;;;14.05;;
27746;SDS011;15138;51.012;4.692;2023-02-20T07:11:52;37.08;;;15.25;;
27746;SDS011;15138;51.012;4.692;2023-02-20T07:14:22;38.00;;;14.57;;
27746;SDS011;15138;51.012;4.692;2023-02-20T07:16:53;30.08;;;13.05;;
27746;SDS011;15138;51.012;4.692;2023-02-20T07:19:25;36.40;;;15.63;;
27746;SDS011;15138;51.012;4.692;2023-02-20T07:21:58;38.17;;;15.10;;
27746;SDS011;15138;51.012;4.692;2023-02-20T07:24:32;28.17;;;14.52;;
27746;SDS011;15138;51.012;4.692;2023-02-20T07:27:05;33.22;;;13.05;;
27746;SDS011;15138;51.012;4.692;2023-02-20T07:29:43;21.45;;;10.23;;
27746;SDS011;15138;51.012;4.692;2023-02-20T07:32:36;27.17;;;12.70;;
27746;SDS011;15138;51.012;4.692;2023-02-20T07:35:07;26.80;;;12.25;;
27746;SDS011;15138;51.012;4.692;2023-02-20T07:37:38;29.25;;;10.82;;
27746;SDS011;15138;51.012;4.692;2023-02-20T07:40:11;28.40;;;10.93;;
27746;SDS011;15138;51.012;4.692;2023-02-20T07:42:44;25.08;;;11.18;;
27746;SDS011;15138;51.012;4.692;2023-02-20T07:45:27;31.05;;;11.77;;
27746;SDS011;15138;51.012;4.692;2023-02-20T07:47:58;30.20;;;13.25;;
27746;SDS011;15138;51.012;4.692;2023-02-20T07:50:42;30.13;;;12.07;;
27746;SDS011;15138;51.012;4.692;2023-02-20T07:53:46;27.17;;;10.07;;
27746;SDS011;15138;51.012;4.692;2023-02-20T07:56:24;20.05;;;6.60;;
27746;SDS011;15138;51.012;4.692;2023-02-20T07:58:54;29.77;;;11.02;;
27746;SDS011;15138;51.012;4.692;2023-02-20T08:01:29;21.15;;;12.45;;
27746;SDS011;15138;51.012;4.692;2023-02-20T08:04:00;20.88;;;7.95;;
27746;SDS011;15138;51.012;4.692;2023-02-20T08:06:32;24.58;;;8.43;;
27746;SDS011;15138;51.012;4.692;2023-02-20T08:09:06;32.60;;;11.75;;
27746;SDS011;15138;51.012;4.692;2023-02-20T08:11:36;24.40;;;8.63;;
27746;SDS011;15138;51.012;4.692;2023-02-20T08:14:07;24.88;;;11.40;;
27746;SDS011;15138;51.012;4.692;2023-02-20T08:16:38;22.65;;;9.27;;
27746;SDS011;15138;51.012;4.692;2023-02-20T08:19:18;27.33;;;11.25;;
27746;SDS011;15138;51.012;4.692;2023-02-20T08:21:53;22.92;;;8.48;;
27746;SDS011;15138;51.012;4.692;2023-02-20T08:24:34;22.80;;;8.95;;
27746;SDS011;15138;51.012;4.692;2023-02-20T08:27:23;21.10;;;8.23;;
27746;SDS011;15138;51.012;4.692;2023-02-20T08:29:54;22.98;;;9.00;;
27746;SDS011;15138;51.012;4.692;2023-02-20T08:32:27;13.30;;;5.97;;
27746;SDS011;15138;51.012;4.692;2023-02-20T08:35:00;23.10;;;8.82;;
27746;SDS011;15138;51.012;4.692;2023-02-20T08:37:38;22.52;;;9.40;;
27746;SDS011;15138;51.012;4.692;2023-02-20T08:40:10;28.70;;;10.25;;
27746;SDS011;15138;51.012;4.692;2023-02-20T08:42:44;23.63;;;9.65;;
27746;SDS011;15138;51.012;4.692;2023-02-20T08:45:23;17.60;;;6.32;;
27746;SDS011;15138;51.012;4.692;2023-02-20T08:47:55;19.70;;;9.20;;
27746;SDS011;15138;51.012;4.692;2023-02-20T08:50:28;22.85;;;9.15;;
27746;SDS011;15138;51.012;4.692;2023-02-20T08:53:03;24.10;;;9.25;;
27746;SDS011;15138;51.012;4.692;2023-02-20T08:55:41;21.73;;;9.10;;
27746;SDS011;15138;51.012;4.692;2023-02-20T08:58:17;27.40;;;8.68;;
27746;SDS011;15138;51.012;4.692;2023-02-20T09:00:49;25.35;;;8.90;;
27746;SDS011;15138;51.012;4.692;2023-02-20T09:03:20;24.02;;;9.35;;
27746;SDS011;15138;51.012;4.692;2023-02-20T09:05:58;29.77;;;9.60;;
27746;SDS011;15138;51.012;4.692;2023-02-20T09:08:29;20.90;;;7.68;;
27746;SDS011;15138;51.012;4.692;2023-02-20T09:11:06;24.33;;;9.38;;
27746;SDS011;15138;51.012;4.692;2023-02-20T09:13:41;28.98;;;9.80;;
27746;SDS011;15138;51.012;4.692;2023-02-20T09:16:19;26.13;;;10.55;;
27746;SDS011;15138;51.012;4.692;2023-02-20T09:19:06;24.25;;;9.50;;
27746;SDS011;15138;51.012;4.692;2023-02-20T09:21:44;7.38;;;3.13;;
27746;SDS011;15138;51.012;4.692;2023-02-20T09:26:49;20.60;;;8.40;;
27746;SDS011;15138;51.012;4.692;2023-02-20T09:29:25;21.35;;;9.20;;
27746;SDS011;15138;51.012;4.692;2023-02-20T09:32:13;21.10;;;8.43;;
27746;SDS011;15138;51.012;4.692;2023-02-20T09:34:48;23.67;;;8.43;;
27746;SDS011;15138;51.012;4.692;2023-02-20T09:37:33;22.58;;;6.65;;
27746;SDS011;15138;51.012;4.692;2023-02-20T09:40:07;22.77;;;6.90;;
27746;SDS011;15138;51.012;4.692;2023-02-20T09:43:09;18.65;;;6.28;;
27746;SDS011;15138;51.012;4.692;2023-02-20T09:45:56;29.05;;;8.38;;
27746;SDS011;15138;51.012;4.692;2023-02-20T09:48:53;21.92;;;8.25;;
27746;SDS011;15138;51.012;4.692;2023-02-20T09:51:37;24.25;;;8.70;;
27746;SDS011;15138;51.012;4.692;2023-02-20T09:54:18;28.80;;;9.75;;
27746;SDS011;15138;51.012;4.692;2023-02-20T09:56:53;34.95;;;9.05;;
27746;SDS011;15138;51.012;4.692;2023-02-20T09:59:31;26.40;;;9.07;;
27746;SDS011;15138;51.012;4.692;2023-02-20T10:02:11;21.05;;;9.65;;
27746;SDS011;15138;51.012;4.692;2023-02-20T10:04:49;22.15;;;8.05;;
27746;SDS011;15138;51.012;4.692;2023-02-20T10:07:27;7.20;;;3.15;;
27746;SDS011;15138;51.012;4.692;2023-02-20T10:10:16;24.50;;;7.40;;
27746;SDS011;15138;51.012;4.692;2023-02-20T10:12:56;24.23;;;7.95;;
27746;SDS011;15138;51.012;4.692;2023-02-20T10:15:48;31.92;;;9.30;;
27746;SDS011;15138;51.012;4.692;2023-02-20T10:21:00;20.35;;;7.18;;
27746;SDS011;15138;51.012;4.692;2023-02-20T10:23:37;19.67;;;8.60;;
27746;SDS011;15138;51.012;4.692;2023-02-20T10:26:32;28.25;;;9.57;;
27746;SDS011;15138;51.012;4.692;2023-02-20T10:29:11;34.15;;;11.80;;
27746;SDS011;15138;51.012;4.692;2023-02-20T10:31:59;30.60;;;11.25;;
27746;SDS011;15138;51.012;4.692;2023-02-20T10:34:33;22.33;;;9.02;;
27746;SDS011;15138;51.012;4.692;2023-02-20T10:39:44;26.80;;;10.25;;
27746;SDS011;15138;51.012;4.692;2023-02-20T10:42:30;27.25;;;10.18;;
27746;SDS011;15138;51.012;4.692;2023-02-20T10:45:13;28.77;;;10.90;;
27746;SDS011;15138;51.012;4.692;2023-02-20T10:50:36;32.20;;;10.63;;
27746;SDS011;15138;51.012;4.692;2023-02-20T10:53:17;24.23;;;8.88;;
27746;SDS011;15138;51.012;4.692;2023-02-20T10:55:58;27.77;;;9.32;;
27746;SDS011;15138;51.012;4.692;2023-02-20T10:58:36;29.35;;;10.52;;
27746;SDS011;15138;51.012;4.692;2023-02-20T11:01:10;21.38;;;9.50;;
27746;SDS011;15138;51.012;4.692;2023-02-20T11:03:51;26.25;;;11.57;;
27746;SDS011;15138;51.012;4.692;2023-02-20T11:06:28;26.73;;;8.77;;
27746;SDS011;15138;51.012;4.692;2023-02-20T11:09:00;27.67;;;10.53;;
27746;SDS011;15138;51.012;4.692;2023-02-20T11:11:32;20.88;;;9.27;;
27746;SDS011;15138;51.012;4.692;2023-02-20T11:14:11;25.50;;;9.82;;
27746;SDS011;15138;51.012;4.692;2023-02-20T11:16:43;35.03;;;10.55;;
27746;SDS011;15138;51.012;4.692;2023-02-20T11:19:20;20.00;;;9.13;;
27746;SDS011;15138;51.012;4.692;2023-02-20T11:21:52;24.95;;;11.93;;
27746;SDS011;15138;51.012;4.692;2023-02-20T11:24:29;20.92;;;6.68;;
27746;SDS011;15138;51.012;4.692;2023-02-20T11:27:04;23.92;;;7.75;;
27746;SDS011;15138;51.012;4.692;2023-02-20T11:29:42;38.90;;;9.48;;
27746;SDS011;15138;51.012;4.692;2023-02-20T11:38:18;25.88;;;8.23;;
27746;SDS011;15138;51.012;4.692;2023-02-20T11:41:00;23.67;;;7.72;;
27746;SDS011;15138;51.012;4.692;2023-02-20T11:43:33;27.42;;;8.20;;
27746;SDS011;15138;51.012;4.692;2023-02-20T11:46:10;17.35;;;5.65;;
27746;SDS011;15138;51.012;4.692;2023-02-20T11:48:56;19.70;;;7.18;;
27746;SDS011;15138;51.012;4.692;2023-02-20T11:51:34;14.25;;;5.45;;
27746;SDS011;15138;51.012;4.692;2023-02-20T11:54:07;19.65;;;6.93;;
27746;SDS011;15138;51.012;4.692;2023-02-20T11:56:53;16.95;;;5.70;;
27746;SDS011;15138;51.012;4.692;2023-02-20T11:59:35;13.38;;;6.18;;
27746;SDS011;15138;51.012;4.692;2023-02-20T12:02:23;20.52;;;5.95;;
27746;SDS011;15138;51.012;4.692;2023-02-20T12:05:04;18.55;;;6.53;;
27746;SDS011;15138;51.012;4.692;2023-02-20T12:07:44;19.35;;;7.20;;
27746;SDS011;15138;51.012;4.692;2023-02-20T12:10:33;13.80;;;5.53;;
27746;SDS011;15138;51.012;4.692;2023-02-20T12:13:10;15.98;;;5.90;;
27746;SDS011;15138;51.012;4.692;2023-02-20T12:15:46;24.15;;;6.25;;
27746;SDS011;15138;51.012;4.692;2023-02-20T12:18:28;22.95;;;7.57;;
27746;SDS011;15138;51.012;4.692;2023-02-20T12:24:26;18.52;;;6.82;;
27746;SDS011;15138;51.012;4.692;2023-02-20T12:27:33;16.77;;;5.47;;
27746;SDS011;15138;51.012;4.692;2023-02-20T12:30:24;24.13;;;7.15;;
27746;SDS011;15138;51.012;4.692;2023-02-20T12:33:07;15.30;;;6.53;;
27746;SDS011;15138;51.012;4.692;2023-02-20T12:35:58;17.35;;;4.28;;
27746;SDS011;15138;51.012;4.692;2023-02-20T12:38:36;17.67;;;6.07;;
27746;SDS011;15138;51.012;4.692;2023-02-20T12:41:30;21.40;;;5.35;;
27746;SDS011;15138;51.012;4.692;2023-02-20T12:44:22;15.07;;;5.43;;
27746;SDS011;15138;51.012;4.692;2023-02-20T12:49:51;18.52;;;5.45;;
27746;SDS011;15138;51.012;4.692;2023-02-20T12:52:35;23.27;;;6.22;;
27746;SDS011;15138;51.012;4.692;2023-02-20T12:55:23;14.27;;;5.18;;
27746;SDS011;15138;51.012;4.692;2023-02-20T12:58:12;18.38;;;4.93;;
27746;SDS011;15138;51.012;4.692;2023-02-20T13:00:49;23.83;;;6.05;;
27746;SDS011;15138;51.012;4.692;2023-02-20T13:03:34;18.92;;;5.75;;
27746;SDS011;15138;51.012;4.692;2023-02-20T13:06:21;14.73;;;5.32;;
27746;SDS011;15138;51.012;4.692;2023-02-20T13:09:00;14.02;;;5.95;;
27746;SDS011;15138;51.012;4.692;2023-02-20T13:11:42;16.70;;;5.07;;
27746;SDS011;15138;51.012;4.692;2023-02-20T13:14:35;17.17;;;5.85;;
27746;SDS011;15138;51.012;4.692;2023-02-20T13:17:30;17.52;;;4.43;;
27746;SDS011;15138;51.012;4.692;2023-02-20T13:20:16;19.13;;;4.95;;
27746;SDS011;15138;51.012;4.692;2023-02-20T13:23:00;14.63;;;5.78;;
27746;SDS011;15138;51.012;4.692;2023-02-20T13:25:35;15.27;;;6.20;;
27746;SDS011;15138;51.012;4.692;2023-02-20T13:28:20;15.75;;;6.30;;
27746;SDS011;15138;51.012;4.692;2023-02-20T13:31:11;10.90;;;4.43;;
27746;SDS011;15138;51.012;4.692;2023-02-20T13:40:39;22.50;;;6.35;;
27746;SDS011;15138;51.012;4.692;2023-02-20T13:43:30;18.15;;;7.47;;
27746;SDS011;15138;51.012;4.692;2023-02-20T13:46:11;18.83;;;7.35;;
27746;SDS011;15138;51.012;4.692;2023-02-20T13:48:52;20.65;;;7.45;;
27746;SDS011;15138;51.012;4.692;2023-02-20T13:51:27;17.83;;;5.97;;
27746;SDS011;15138;51.012;4.692;2023-02-20T13:54:21;21.67;;;7.90;;
27746;SDS011;15138;51.012;4.692;2023-02-20T13:56:55;17.35;;;7.88;;
27746;SDS011;15138;51.012;4.692;2023-02-20T13:59:59;18.40;;;7.05;;
27746;SDS011;15138;51.012;4.692;2023-02-20T14:02:35;22.00;;;6.57;;
27746;SDS011;15138;51.012;4.692;2023-02-20T14:05:21;20.92;;;7.90;;
27746;SDS011;15138;51.012;4.692;2023-02-20T14:07:59;18.08;;;7.90;;
27746;SDS011;15138;51.012;4.692;2023-02-20T14:10:35;18.13;;;7.22;;
27746;SDS011;15138;51.012;4.692;2023-02-20T14:13:12;18.33;;;8.50;;
27746;SDS011;15138;51.012;4.692;2023-02-20T14:15:54;20.63;;;7.70;;
27746;SDS011;15138;51.012;4.692;2023-02-20T14:18:29;12.77;;;6.78;;
27746;SDS011;15138;51.012;4.692;2023-02-20T14:21:04;24.65;;;9.02;;
27746;SDS011;15138;51.012;4.692;2023-02-20T14:23:41;18.50;;;7.68;;
27746;SDS011;15138;51.012;4.692;2023-02-20T14:26:17;18.90;;;8.27;;
27746;SDS011;15138;51.012;4.692;2023-02-20T14:28:55;21.27;;;9.02;;
27746;SDS011;15138;51.012;4.692;2023-02-20T14:31:26;16.65;;;8.70;;
27746;SDS011;15138;51.012;4.692;2023-02-20T14:34:06;25.17;;;9.80;;
27746;SDS011;15138;51.012;4.692;2023-02-20T14:36:41;16.27;;;8.88;;
27746;SDS011;15138;51.012;4.692;2023-02-20T14:39:28;19.70;;;9.25;;
27746;SDS011;15138;51.012;4.692;2023-02-20T14:42:13;16.00;;;9.32;;
27746;SDS011;15138;51.012;4.692;2023-02-20T14:44:46;20.25;;;9.18;;
27746;SDS011;15138;51.012;4.692;2023-02-20T14:47:17;20.40;;;8.63;;
27746;SDS011;15138;51.012;4.692;2023-02-20T14:49:49;25.55;;;8.63;;
27746;SDS011;15138;51.012;4.692;2023-02-20T14:52:21;17.83;;;9.82;;
27746;SDS011;15138;51.012;4.692;2023-02-20T14:54:56;20.25;;;9.30;;
27746;SDS011;15138;51.012;4.692;2023-02-20T14:57:29;24.73;;;10.38;;
27746;SDS011;15138;51.012;4.692;2023-02-20T15:00:21;21.85;;;8.98;;
27746;SDS011;15138;51.012;4.692;2023-02-20T15:03:05;17.55;;;6.97;;
27746;SDS011;15138;51.012;4.692;2023-02-20T15:06:01;22.50;;;9.30;;
27746;SDS011;15138;51.012;4.692;2023-02-20T15:08:36;14.18;;;9.20;;
27746;SDS011;15138;51.012;4.692;2023-02-20T15:11:08;14.82;;;8.95;;
27746;SDS011;15138;51.012;4.692;2023-02-20T15:13:40;21.25;;;9.23;;
27746;SDS011;15138;51.012;4.692;2023-02-20T15:16:14;20.58;;;9.02;;
27746;SDS011;15138;51.012;4.692;2023-02-20T15:18:49;19.23;;;9.32;;
27746;SDS011;15138;51.012;4.692;2023-02-20T15:21:34;19.50;;;8.50;;
27746;SDS011;15138;51.012;4.692;2023-02-20T15:24:26;20.45;;;8.25;;
27746;SDS011;15138;51.012;4.692;2023-02-20T15:27:08;21.10;;;9.35;;
27746;SDS011;15138;51.012;4.692;2023-02-20T15:29:42;22.15;;;10.40;;
27746;SDS011;15138;51.012;4.692;2023-02-20T15:32:17;19.23;;;9.05;;
27746;SDS011;15138;51.012;4.692;2023-02-20T15:34:52;20.17;;;8.75;;
27746;SDS011;15138;51.012;4.692;2023-02-20T15:37:27;18.27;;;9.15;;
27746;SDS011;15138;51.012;4.692;2023-02-20T15:40:18;19.13;;;9.05;;
27746;SDS011;15138;51.012;4.692;2023-02-20T15:42:50;18.67;;;8.40;;
27746;SDS011;15138;51.012;4.692;2023-02-20T15:45:24;17.02;;;9.30;;
27746;SDS011;15138;51.012;4.692;2023-02-20T15:47:57;21.13;;;8.15;;
27746;SDS011;15138;51.012;4.692;2023-02-20T15:50:40;17.98;;;8.65;;
27746;SDS011;15138;51.012;4.692;2023-02-20T15:53:15;19.15;;;7.82;;
27746;SDS011;15138;51.012;4.692;2023-02-20T15:55:49;23.70;;;8.90;;
27746;SDS011;15138;51.012;4.692;2023-02-20T15:58:21;17.15;;;8.23;;